This is the latest recevied weather packets stored in our database for station/object KJ4EWA. If no packets are shown the sender has not sent any weather packets the latest 1 day(s).
| Time | Temp. | Humidity | Pressure | Rain* | Wind** | Luminosity | Snow |
|---|---|---|---|---|---|---|---|
| 1778027907 | 21.67° C | 91% | 1017 hPa | 0 mm | 0 m/s | 0 W/m² | - |
| 1778027604 | 21.67° C | 90% | 1017.1 hPa | 0 mm | 0 m/s | 0 W/m² | - |
| 1778027300 | 22.22° C | 89% | 1016.9 hPa | 0 mm | 0 m/s | 0 W/m² | - |
| 1778026997 | 22.22° C | 88% | 1016.8 hPa | 0 mm | 0 m/s | 0 W/m² | - |
| 1778026692 | 22.78° C | 87% | 1016.9 hPa | 0 mm | 0.45 m/s, 166° | 1 W/m² | - |
| 1778026390 | 22.78° C | 86% | 1017.1 hPa | 0 mm | 0.45 m/s, 166° | 4 W/m² | - |
| 1778026087 | 22.78° C | 85% | 1017 hPa | 0 mm | 1.79 m/s, 132° | 7 W/m² | - |
| 1778025784 | 22.78° C | 84% | 1017 hPa | 0 mm | 0 m/s | 12 W/m² | - |
| 1778025481 | 23.33° C | 83% | 1017.2 hPa | 0 mm | 0.89 m/s, 117° | 18 W/m² | - |
| 1778025179 | 23.33° C | 82% | 1016.9 hPa | 0 mm | 0.45 m/s, 151° | 22 W/m² | - |
| 1778024875 | 23.33° C | 82% | 1016.9 hPa | 0 mm | 0.89 m/s, 156° | 24 W/m² | - |
| 1778024573 | 23.89° C | 82% | 1017 hPa | 0 mm | 0.89 m/s, 140° | 28 W/m² | - |
| 1778024270 | 23.89° C | 81% | 1016.7 hPa | 0 mm | 0 m/s | 33 W/m² | - |
| 1778023968 | 23.89° C | 80% | 1016.8 hPa | 0 mm | 0 m/s | 37 W/m² | - |
| 1778023665 | 23.89° C | 80% | 1016.9 hPa | 0 mm | 1.79 m/s, 165° | 44 W/m² | - |
| 1778023362 | 24.44° C | 78% | 1017 hPa | 0 mm | 0.89 m/s, 90° | 49 W/m² | - |
| 1778023058 | 24.44° C | 78% | 1017 hPa | 0 mm | 1.34 m/s, 138° | 50 W/m² | - |
| 1778022757 | 24.44° C | 76% | 1016.7 hPa | 0 mm | 1.34 m/s, 180° | 66 W/m² | - |
| 1778022455 | 24.44° C | 76% | 1016.8 hPa | 0 mm | 1.34 m/s, 147° | 81 W/m² | - |
| 1778022151 | 25° C | 74% | 1016.7 hPa | 0 mm | 1.34 m/s, 107° | 125 W/m² | - |
| 1778021848 | 25° C | 77% | 1016.7 hPa | 0 mm | 0 m/s | 131 W/m² | - |
| 1778021545 | 24.44° C | 82% | 1017 hPa | 0 mm | 0 m/s | 150 W/m² | - |
| 1778021240 | 24.44° C | 83% | 1016.8 hPa | 0 mm | 1.79 m/s, 197° | 152 W/m² | - |
| 1778020938 | 23.89° C | 83% | 1016.8 hPa | 0 mm | 0.89 m/s, 159° | 65 W/m² | - |
| 1778020636 | 23.89° C | 83% | 1016.7 hPa | 0 mm | 2.68 m/s, 155° | 99 W/m² | - |
* Rain latest hour (hover to see other rain measurements)
** Current wind speed in m/s (hover to see current wind gust speed)